Time;durP1;ratioP1;P1;durP2;ratioP2;P2;SDS_P1;SDS_P2;PMS_P1;PMS_P2;Temp;Humidity;BMP_temperature;BMP_pressure;BME280_temperature;BME280_humidity;BME280_pressure;Samples;Min_cycle;Max_cycle;Signal;HPM_P1;HPM_P2
2022/07/29 00:01:20;;;;;;;;;;;;;;;;;;6031843;23;8710;-86
2022/07/29 00:03:46;;;;;;;;;;;;;;;;;;6032774;23;8371;-85
2022/07/29 00:06:12;;;;;;;;;;;;;;;;;;6032084;23;8419;-86
2022/07/29 00:08:37;;;;;;;;;;;;;;;;;;6031841;23;7836;-85
2022/07/29 00:11:03;;;;;;;;;;;;;;;;;;6033564;23;8366;-83
2022/07/29 00:13:29;;;;;;;;;;;;;;;;;;6034614;23;7395;-85
2022/07/29 00:15:54;;;;;;;;;;;;;;;;;;6031351;23;8365;-86
2022/07/29 00:18:20;;;;;;;;;;;;;;;;;;6032290;23;8384;-84
2022/07/29 00:20:45;;;;;;;;;;;;;;;;;;6031280;23;8657;-84
2022/07/29 00:23:11;;;;;;;;;;;;;;;;;;6031423;23;8462;-85
2022/07/29 00:25:37;;;;;;;;;;;;;;;;;;6035893;23;8427;-78
2022/07/29 00:28:02;;;;;;;;;;;;;;;;;;6040193;23;8389;-79
2022/07/29 00:30:28;;;;;;;;;;;;;;;;;;6039541;23;6952;-79
2022/07/29 00:32:54;;;;;;;;;;;;;;;;;;6036915;23;7014;-87
2022/07/29 00:38:03;;;;;;;;;;;;;;;;;;5986516;24;7024;-85
2022/07/29 00:40:29;;;;;;;;;;;;;;;;;;6031917;23;8606;-86
2022/07/29 00:42:54;;;;;;;;;;;;;;;;;;6032357;23;8558;-82
2022/07/29 00:45:21;;;;;;;;;;;;;;;;;;6033409;23;7072;-86
2022/07/29 00:47:47;;;;;;;;;;;;;;;;;;6033392;23;7238;-86
2022/07/29 00:50:13;;;;;;;;;;;;;;;;;;6032767;23;7056;-86
2022/07/29 00:52:40;;;;;;;;;;;;;;;;;;6033076;23;8442;-85
2022/07/29 00:55:07;;;;;;;;;;;;;;;;;;6033746;23;7041;-84
2022/07/29 00:57:34;;;;;;;;;;;;;;;;;;6033292;23;8654;-84
2022/07/29 00:59:59;;;;;;;;;;;;;;;;;;6032581;23;8440;-86
2022/07/29 01:02:25;;;;;;;;;;;;;;;;;;6033831;23;7074;-86
2022/07/29 01:04:51;;;;;;;;;;;;;;;;;;6033112;23;8359;-85
2022/07/29 01:07:18;;;;;;;;;;;;;;;;;;6032788;23;9399;-88
2022/07/29 01:09:46;;;;;;;;;;;;;;;;;;6031458;23;7151;-86
2022/07/29 01:12:13;;;;;;;;;;;;;;;;;;6031711;23;8373;-86
2022/07/29 01:14:40;;;;;;;;;;;;;;;;;;6031811;23;8326;-86
2022/07/29 01:17:10;;;;;;;;;;;;;;;;;;6032170;23;8348;-85
2022/07/29 01:19:53;;;;;;;;;;;;;;;;;;6031603;23;8451;-87
2022/07/29 01:22:28;;;;;;;;;;;;;;;;;;6031461;23;7031;-85
2022/07/29 01:24:53;;;;;;;;;;;;;;;;;;6031910;23;8860;-85
2022/07/29 01:27:31;;;;;;;;;;;;;;;;;;6008133;23;8372;-83
2022/07/29 01:30:02;;;;;;;;;;;;;;;;;;6007449;23;8484;-86
2022/07/29 01:32:33;;;;;;;;;;;;;;;;;;6032454;23;6827;-83
2022/07/29 01:34:58;;;;;;;;;;;;;;;;;;6033673;23;8758;-85
2022/07/29 01:37:41;;;;;;;;;;;;;;;;;;6009532;23;8410;-86
2022/07/29 01:40:14;;;;;;;;;;;;;;;;;;6033806;23;8454;-86
2022/07/29 01:42:44;;;;;;;;;;;;;;;;;;6032811;23;8454;-85
2022/07/29 01:45:10;;;;;;;;;;;;;;;;;;6033780;23;7217;-86
2022/07/29 01:47:43;;;;;;;;;;;;;;;;;;6009467;23;7365;-86
2022/07/29 01:50:11;;;;;;;;;;;;;;;;;;6035715;23;7139;-83
2022/07/29 01:53:03;;;;;;;;;;;;;;;;;;6034968;23;8285;-82
2022/07/29 01:55:31;;;;;;;;;;;;;;;;;;5983540;24;7000;-85
2022/07/29 01:57:58;;;;;;;;;;;;;;;;;;6035500;23;7151;-82
2022/07/29 02:00:25;;;;;;;;;;;;;;;;;;6036237;23;6807;-86
2022/07/29 02:02:53;;;;;;;;;;;;;;;;;;6035896;23;8729;-84
2022/07/29 02:05:23;;;;;;;;;;;;;;;;;;6037551;23;8396;-83
2022/07/29 02:07:50;;;;;;;;;;;;;;;;;;6040291;23;7148;-80
2022/07/29 02:10:19;;;;;;;;;;;;;;;;;;6041332;23;8396;-76
2022/07/29 02:12:47;;;;;;;;;;;;;;;;;;6043186;23;7151;-83
2022/07/29 02:15:15;;;;;;;;;;;;;;;;;;6041672;23;8555;-83
2022/07/29 02:17:42;;;;;;;;;;;;;;;;;;6037245;23;8531;-84
2022/07/29 02:20:09;;;;;;;;;;;;;;;;;;6037057;23;8347;-85
2022/07/29 02:22:37;;;;;;;;;;;;;;;;;;6034599;23;8357;-83
2022/07/29 02:25:04;;;;;;;;;;;;;;;;;;6032769;23;8427;-84
2022/07/29 02:27:33;;;;;;;;;;;;;;;;;;6032541;23;7163;-82
2022/07/29 02:30:00;;;;;;;;;;;;;;;;;;6031992;23;6975;-84
2022/07/29 02:32:28;;;;;;;;;;;;;;;;;;6032993;23;8425;-84
2022/07/29 02:34:56;;;;;;;;;;;;;;;;;;6032575;23;8580;-83
2022/07/29 02:37:23;;;;;;;;;;;;;;;;;;6032926;23;6975;-84
2022/07/29 02:39:53;;;;;;;;;;;;;;;;;;6032638;23;8438;-84
2022/07/29 02:42:21;;;;;;;;;;;;;;;;;;6032968;23;7178;-84
2022/07/29 02:44:46;;;;;;;;;;;;;;;;;;6032776;23;7336;-84
2022/07/29 02:47:17;;;;;;;;;;;;;;;;;;6032403;23;7010;-84
2022/07/29 02:49:52;;;;;;;;;;;;;;;;;;6032560;23;7168;-83
2022/07/29 02:52:24;;;;;;;;;;;;;;;;;;6032695;23;7160;-84
2022/07/29 02:55:09;;;;;;;;;;;;;;;;;;6008270;23;7864;-84
2022/07/29 02:57:48;;;;;;;;;;;;;;;;;;6033052;23;8377;-84
2022/07/29 03:00:15;;;;;;;;;;;;;;;;;;6032177;23;8388;-83
2022/07/29 03:02:44;;;;;;;;;;;;;;;;;;6032539;23;7023;-84
2022/07/29 03:05:15;;;;;;;;;;;;;;;;;;6032189;23;7114;-84
2022/07/29 03:07:43;;;;;;;;;;;;;;;;;;6032986;23;8389;-85
2022/07/29 03:10:09;;;;;;;;;;;;;;;;;;6031804;23;7092;-85
2022/07/29 03:12:35;;;;;;;;;;;;;;;;;;6032523;23;9263;-84
2022/07/29 03:15:01;;;;;;;;;;;;;;;;;;6032045;23;7932;-84
2022/07/29 03:17:27;;;;;;;;;;;;;;;;;;6032369;23;7155;-86
2022/07/29 03:19:54;;;;;;;;;;;;;;;;;;6032817;23;7013;-85
2022/07/29 03:22:20;;;;;;;;;;;;;;;;;;6032661;23;6835;-84
2022/07/29 03:24:46;;;;;;;;;;;;;;;;;;6031748;23;7141;-84
2022/07/29 03:27:12;;;;;;;;;;;;;;;;;;6032211;23;7023;-84
2022/07/29 03:29:37;;;;;;;;;;;;;;;;;;6031703;23;8370;-84
2022/07/29 03:32:04;;;;;;;;;;;;;;;;;;6031863;23;8820;-85
2022/07/29 03:34:30;;;;;;;;;;;;;;;;;;6032236;23;7128;-84
2022/07/29 03:36:55;;;;;;;;;;;;;;;;;;6032167;23;6960;-84
2022/07/29 03:39:24;;;;;;;;;;;;;;;;;;6032054;23;8470;-85
2022/07/29 03:41:52;;;;;;;;;;;;;;;;;;6032540;23;6815;-85
2022/07/29 03:44:21;;;;;;;;;;;;;;;;;;6032659;23;6911;-86
2022/07/29 03:46:48;;;;;;;;;;;;;;;;;;6031814;23;8440;-85
2022/07/29 03:49:15;;;;;;;;;;;;;;;;;;6031635;23;7877;-85
2022/07/29 03:51:40;;;;;;;;;;;;;;;;;;6032272;23;8584;-86
2022/07/29 03:54:07;;;;;;;;;;;;;;;;;;6032051;23;8312;-86
2022/07/29 03:56:38;;;;;;;;;;;;;;;;;;6032275;23;8404;-85
2022/07/29 03:59:04;;;;;;;;;;;;;;;;;;6032242;23;9259;-85
2022/07/29 04:01:33;;;;;;;;;;;;;;;;;;6032103;23;8497;-86
2022/07/29 04:03:59;;;;;;;;;;;;;;;;;;6032312;23;7122;-85
2022/07/29 04:06:25;;;;;;;;;;;;;;;;;;6031696;23;8581;-84
2022/07/29 04:08:51;;;;;;;;;;;;;;;;;;6031571;23;7286;-85
2022/07/29 04:11:17;;;;;;;;;;;;;;;;;;6031682;23;7119;-85
2022/07/29 04:13:43;;;;;;;;;;;;;;;;;;6032105;23;7133;-86
2022/07/29 04:16:08;;;;;;;;;;;;;;;;;;6031406;23;6929;-86
2022/07/29 04:18:34;;;;;;;;;;;;;;;;;;6031450;23;6892;-86
2022/07/29 04:21:00;;;;;;;;;;;;;;;;;;6031401;23;8375;-85
2022/07/29 04:23:26;;;;;;;;;;;;;;;;;;6031327;23;8574;-85
2022/07/29 04:25:52;;;;;;;;;;;;;;;;;;6031530;23;6979;-85
2022/07/29 04:28:17;;;;;;;;;;;;;;;;;;6031611;23;6958;-81
2022/07/29 04:30:43;;;;;;;;;;;;;;;;;;6031773;23;8402;-85
2022/07/29 04:33:08;;;;;;;;;;;;;;;;;;6032014;23;6877;-83
2022/07/29 04:35:36;;;;;;;;;;;;;;;;;;6031633;23;7119;-85
2022/07/29 04:38:02;;;;;;;;;;;;;;;;;;6031674;23;9407;-85
2022/07/29 04:40:28;;;;;;;;;;;;;;;;;;6031933;23;8787;-84
2022/07/29 04:42:54;;;;;;;;;;;;;;;;;;6032001;23;8398;-84
2022/07/29 04:45:20;;;;;;;;;;;;;;;;;;6031378;23;8409;-85
2022/07/29 04:47:46;;;;;;;;;;;;;;;;;;6031689;23;8624;-84
2022/07/29 04:50:12;;;;;;;;;;;;;;;;;;6031574;23;7008;-85
2022/07/29 04:52:37;;;;;;;;;;;;;;;;;;6031614;23;8393;-85
2022/07/29 04:55:04;;;;;;;;;;;;;;;;;;6031586;23;8721;-85
2022/07/29 04:57:30;;;;;;;;;;;;;;;;;;6031866;23;8461;-86
2022/07/29 04:59:56;;;;;;;;;;;;;;;;;;6031521;23;7127;-85
2022/07/29 05:02:22;;;;;;;;;;;;;;;;;;6031679;23;8383;-85
2022/07/29 05:04:47;;;;;;;;;;;;;;;;;;6031236;23;6968;-85
2022/07/29 05:07:14;;;;;;;;;;;;;;;;;;6031121;23;8483;-86
2022/07/29 05:09:39;;;;;;;;;;;;;;;;;;6031157;23;7137;-85
2022/07/29 05:12:05;;;;;;;;;;;;;;;;;;6031916;23;7751;-84
2022/07/29 05:14:30;;;;;;;;;;;;;;;;;;6031571;23;8407;-84
2022/07/29 05:16:56;;;;;;;;;;;;;;;;;;6031027;23;7132;-85
2022/07/29 05:19:23;;;;;;;;;;;;;;;;;;6033318;23;7013;-84
2022/07/29 05:21:49;;;;;;;;;;;;;;;;;;6029904;23;7163;-77
2022/07/29 05:24:15;;;;;;;;;;;;;;;;;;6027930;23;8504;-85
2022/07/29 05:26:41;;;;;;;;;;;;;;;;;;6028372;23;8396;-85
2022/07/29 05:29:06;;;;;;;;;;;;;;;;;;6030190;23;9174;-86
2022/07/29 05:31:33;;;;;;;;;;;;;;;;;;6029918;23;7157;-85
2022/07/29 05:33:58;;;;;;;;;;;;;;;;;;6029579;23;7236;-85
2022/07/29 05:36:24;;;;;;;;;;;;;;;;;;6029279;23;6811;-83
2022/07/29 05:38:50;;;;;;;;;;;;;;;;;;6032145;23;7201;-85
2022/07/29 05:41:16;;;;;;;;;;;;;;;;;;6030872;23;7296;-88
2022/07/29 05:43:41;;;;;;;;;;;;;;;;;;6035627;23;8731;-79
2022/07/29 05:46:07;;;;;;;;;;;;;;;;;;6032805;23;6981;-80
2022/07/29 05:48:32;;;;;;;;;;;;;;;;;;6032947;23;8548;-85
2022/07/29 05:50:58;;;;;;;;;;;;;;;;;;6032256;23;8272;-84
2022/07/29 05:53:23;;;;;;;;;;;;;;;;;;6031551;23;7003;-84
2022/07/29 05:55:49;;;;;;;;;;;;;;;;;;6031296;23;7180;-83
2022/07/29 05:58:15;;;;;;;;;;;;;;;;;;6031551;23;8381;-85
2022/07/29 06:00:42;;;;;;;;;;;;;;;;;;6031763;23;8787;-84
2022/07/29 06:03:07;;;;;;;;;;;;;;;;;;6031796;23;7065;-83
2022/07/29 06:05:33;;;;;;;;;;;;;;;;;;6032033;23;8464;-84
2022/07/29 06:07:58;;;;;;;;;;;;;;;;;;6007203;23;8655;-83
2022/07/29 06:10:24;;;;;;;;;;;;;;;;;;6031695;23;8428;-85
2022/07/29 06:12:50;;;;;;;;;;;;;;;;;;6032223;23;7126;-85
2022/07/29 06:15:15;;;;;;;;;;;;;;;;;;6032221;23;7080;-84
2022/07/29 06:17:41;;;;;;;;;;;;;;;;;;6032930;23;7371;-73
2022/07/29 06:20:06;;;;;;;;;;;;;;;;;;6031716;23;8408;-81
2022/07/29 06:22:32;;;;;;;;;;;;;;;;;;6031776;23;8412;-81
2022/07/29 06:24:57;;;;;;;;;;;;;;;;;;6031719;23;7177;-79
2022/07/29 06:27:23;;;;;;;;;;;;;;;;;;6030732;23;7084;-86
2022/07/29 06:29:48;;;;;;;;;;;;;;;;;;6031456;23;7028;-83
2022/07/29 06:32:14;;;;;;;;;;;;;;;;;;6032462;23;7217;-84
2022/07/29 06:34:39;;;;;;;;;;;;;;;;;;6031583;23;7670;-84
2022/07/29 06:37:06;;;;;;;;;;;;;;;;;;6032564;23;8348;-83
2022/07/29 06:39:33;;;;;;;;;;;;;;;;;;6032018;23;7395;-84
2022/07/29 06:41:59;;;;;;;;;;;;;;;;;;6032603;23;8537;-84
2022/07/29 06:44:25;;;;;;;;;;;;;;;;;;6032482;23;7151;-84
2022/07/29 06:46:51;;;;;;;;;;;;;;;;;;6032285;23;7003;-84
2022/07/29 06:49:17;;;;;;;;;;;;;;;;;;6032423;23;6991;-84
2022/07/29 06:51:42;;;;;;;;;;;;;;;;;;6032449;23;7171;-84
2022/07/29 06:54:08;;;;;;;;;;;;;;;;;;6032271;23;8377;-85
2022/07/29 06:56:38;;;;;;;;;;;;;;;;;;6032729;23;8391;-83
2022/07/29 06:59:05;;;;;;;;;;;;;;;;;;6032112;23;7302;-84
2022/07/29 07:01:31;;;;;;;;;;;;;;;;;;6032557;23;7418;-84
2022/07/29 07:03:57;;;;;;;;;;;;;;;;;;6032630;23;8732;-85
2022/07/29 07:06:22;;;;;;;;;;;;;;;;;;6032203;23;8658;-84
2022/07/29 07:08:48;;;;;;;;;;;;;;;;;;6031851;23;7321;-84
2022/07/29 07:11:14;;;;;;;;;;;;;;;;;;6032011;23;8740;-84
2022/07/29 07:13:39;;;;;;;;;;;;;;;;;;6032551;23;8279;-84
2022/07/29 07:16:05;;;;;;;;;;;;;;;;;;6032417;23;8379;-84
2022/07/29 07:18:31;;;;;;;;;;;;;;;;;;6032788;23;8168;-84
2022/07/29 07:20:57;;;;;;;;;;;;;;;;;;6031934;23;7258;-85
2022/07/29 07:23:24;;;;;;;;;;;;;;;;;;6032758;23;8388;-84
2022/07/29 07:25:50;;;;;;;;;;;;;;;;;;6032178;23;8376;-83
2022/07/29 07:28:15;;;;;;;;;;;;;;;;;;6032188;23;8387;-80
2022/07/29 07:30:41;;;;;;;;;;;;;;;;;;6032316;23;8401;-82
2022/07/29 07:33:06;;;;;;;;;;;;;;;;;;6031896;23;8840;-74
2022/07/29 07:35:32;;;;;;;;;;;;;;;;;;6032243;23;8363;-85
2022/07/29 07:37:58;;;;;;;;;;;;;;;;;;6032201;23;6996;-85
2022/07/29 07:40:25;;;;;;;;;;;;;;;;;;6032187;23;8384;-84
2022/07/29 07:42:50;;;;;;;;;;;;;;;;;;6031889;23;8384;-84
2022/07/29 07:45:17;;;;;;;;;;;;;;;;;;6032515;23;8452;-85
2022/07/29 07:47:43;;;;;;;;;;;;;;;;;;6032020;23;8616;-85
2022/07/29 07:50:10;;;;;;;;;;;;;;;;;;6031579;23;7004;-85
2022/07/29 07:52:46;;;;;;;;;;;;;;;;;;6032248;23;8458;-84
2022/07/29 07:55:11;;;;;;;;;;;;;;;;;;6032516;23;8476;-84
2022/07/29 07:57:37;;;;;;;;;;;;;;;;;;6032446;23;8720;-84
2022/07/29 08:00:04;;;;;;;;;;;;;;;;;;6031843;23;8439;-84
2022/07/29 08:02:29;;;;;;;;;;;;;;;;;;6031152;23;8493;-86
2022/07/29 08:04:55;;;;;;;;;;;;;;;;;;6031427;23;8654;-85
2022/07/29 08:07:20;;;;;;;;;;;;;;;;;;6031536;23;8355;-84
2022/07/29 08:09:46;;;;;;;;;;;;;;;;;;6031747;23;7202;-83
2022/07/29 08:12:11;;;;;;;;;;;;;;;;;;6031542;23;8764;-86
2022/07/29 08:14:37;;;;;;;;;;;;;;;;;;6031285;23;7085;-85
2022/07/29 08:17:03;;;;;;;;;;;;;;;;;;6032665;23;6959;-85
2022/07/29 08:19:28;;;;;;;;;;;;;;;;;;6032269;23;7111;-84
2022/07/29 08:21:54;;;;;;;;;;;;;;;;;;6031663;23;8497;-84
2022/07/29 08:27:04;;;;;;;;;;;;;;;;;;5985743;24;6932;-83
2022/07/29 08:29:30;;;;;;;;;;;;;;;;;;6032150;23;8329;-85
2022/07/29 08:31:55;;;;;;;;;;;;;;;;;;6031702;23;8725;-83
2022/07/29 08:34:21;;;;;;;;;;;;;;;;;;6031442;23;8689;-84
2022/07/29 08:36:47;;;;;;;;;;;;;;;;;;6031702;23;8357;-84
2022/07/29 08:39:12;;;;;;;;;;;;;;;;;;6031503;23;8698;-83
2022/07/29 08:41:38;;;;;;;;;;;;;;;;;;6030714;23;8691;-80
2022/07/29 08:44:03;;;;;;;;;;;;;;;;;;6031531;23;8766;-80
2022/07/29 08:46:29;;;;;;;;;;;;;;;;;;6031356;23;6794;-82
2022/07/29 08:48:55;;;;;;;;;;;;;;;;;;6030889;23;7010;-83
2022/07/29 08:51:21;;;;;;;;;;;;;;;;;;6026860;23;8382;-82
2022/07/29 08:53:48;;;;;;;;;;;;;;;;;;6027071;23;7013;-83
2022/07/29 08:56:16;;;;;;;;;;;;;;;;;;6028226;23;7112;-82
2022/07/29 08:58:42;;;;;;;;;;;;;;;;;;6028251;23;8297;-83
2022/07/29 09:01:10;;;;;;;;;;;;;;;;;;6028611;23;8424;-74
2022/07/29 09:03:40;;;;;;;;;;;;;;;;;;6027127;23;8699;-72
2022/07/29 09:06:05;;;;;;;;;;;;;;;;;;6027749;23;7248;-73
2022/07/29 09:08:33;;;;;;;;;;;;;;;;;;6027219;23;7081;-72
2022/07/29 09:11:01;;;;;;;;;;;;;;;;;;6028262;23;8805;-74
2022/07/29 09:13:27;;;;;;;;;;;;;;;;;;6028515;23;6866;-72
2022/07/29 09:15:53;;;;;;;;;;;;;;;;;;6028498;23;8389;-72
2022/07/29 09:18:36;;;;;;;;;;;;;;;;;;6027895;23;7092;-72
2022/07/29 09:24:05;;;;;;;;;;;;;;;;;;5982184;24;6789;-72
2022/07/29 09:26:31;;;;;;;;;;;;;;;;;;6003444;23;7508;-80
2022/07/29 09:28:58;;;;;;;;;;;;;;;;;;6027914;23;8543;-82
2022/07/29 09:31:33;;;;;;;;;;;;;;;;;;6028206;23;7400;-81
2022/07/29 09:34:00;;;;;;;;;;;;;;;;;;6024883;23;7200;-85
2022/07/29 09:36:26;;;;;;;;;;;;;;;;;;6031317;23;8429;-83
2022/07/29 09:38:59;;;;;;;;;;;;;;;;;;6031487;23;9321;-84
2022/07/29 09:41:25;;;;;;;;;;;;;;;;;;6030150;23;8410;-86
2022/07/29 09:43:54;;;;;;;;;;;;;;;;;;6030204;23;9290;-85
2022/07/29 09:46:20;;;;;;;;;;;;;;;;;;6032707;23;8564;-80
2022/07/29 09:49:05;;;;;;;;;;;;;;;;;;6032665;23;8726;-84
2022/07/29 09:51:31;;;;;;;;;;;;;;;;;;6035510;23;7115;-78
2022/07/29 09:53:56;;;;;;;;;;;;;;;;;;6035699;23;8675;-87
2022/07/29 09:57:00;;;;;;;;;;;;;;;;;;6029128;23;8476;-81
2022/07/29 09:59:27;;;;;;;;;;;;;;;;;;5903350;24;7101;-83
2022/07/29 10:01:53;;;;;;;;;;;;;;;;;;5903027;24;8397;-82
2022/07/29 10:04:19;;;;;;;;;;;;;;;;;;5902663;24;7180;-86
2022/07/29 10:07:01;;;;;;;;;;;;;;;;;;5903345;24;8602;-85
2022/07/29 10:09:27;;;;;;;;;;;;;;;;;;5902939;24;9076;-84
2022/07/29 10:12:15;;;;;;;;;;;;;;;;;;5904038;24;7008;-84
2022/07/29 10:14:41;;;;;;;;;;;;;;;;;;5903776;24;6935;-85
2022/07/29 10:17:09;;;;;;;;;;;;;;;;;;5904786;24;7134;-85
2022/07/29 10:19:36;;;;;;;;;;;;;;;;;;5903822;24;7169;-84
2022/07/29 10:22:04;;;;;;;;;;;;;;;;;;5904450;24;8834;-86
2022/07/29 10:24:31;;;;;;;;;;;;;;;;;;5905063;24;8412;-86
2022/07/29 10:26:59;;;;;;;;;;;;;;;;;;5905294;24;7009;-85
2022/07/29 10:29:25;;;;;;;;;;;;;;;;;;5917158;24;8383;-84
2022/07/29 10:31:57;;;;;;;;;;;;;;;;;;6032278;23;8678;-85
2022/07/29 10:34:41;;;;;;;;;;;;;;;;;;6007704;23;8742;-85
2022/07/29 10:37:18;;;;;;;;;;;;;;;;;;5986677;24;8304;-85
2022/07/29 10:41:25;;;;;;;;;;;;;;;;;;6037487;23;7030;-84
2022/07/29 10:42:50;;;;;;;;;;;;;;;;;;5991435;24;7221;-85
2022/07/29 10:45:17;;;;;;;;;;;;;;;;;;6033497;23;8385;-82
2022/07/29 10:47:43;;;;;;;;;;;;;;;;;;6034128;23;8628;-85
2022/07/29 10:50:09;;;;;;;;;;;;;;;;;;6033730;23;8470;-86
2022/07/29 10:52:49;;;;;;;;;;;;;;;;;;6033884;23;8421;-85
2022/07/29 10:55:36;;;;;;;;;;;;;;;;;;6009163;23;8700;-84
2022/07/29 10:58:16;;;;;;;;;;;;;;;;;;6032994;23;6879;-84
2022/07/29 11:00:42;;;;;;;;;;;;;;;;;;6031774;23;8427;-86
2022/07/29 11:03:07;;;;;;;;;;;;;;;;;;6031342;23;8730;-85
2022/07/29 11:06:05;;;;;;;;;;;;;;;;;;6031659;23;7117;-85
2022/07/29 11:08:31;;;;;;;;;;;;;;;;;;5939162;24;8685;-86
2022/07/29 11:11:15;;;;;;;;;;;;;;;;;;6027228;23;8457;-87
2022/07/29 11:13:46;;;;;;;;;;;;;;;;;;5982435;24;7143;-84
2022/07/29 11:16:12;;;;;;;;;;;;;;;;;;6005508;23;7124;-83
2022/07/29 11:18:57;;;;;;;;;;;;;;;;;;6028146;23;7020;-84
2022/07/29 11:21:35;;;;;;;;;;;;;;;;;;6027735;23;7115;-84
2022/07/29 11:24:14;;;;;;;;;;;;;;;;;;6029144;23;8427;-86
2022/07/29 11:26:39;;;;;;;;;;;;;;;;;;6028948;23;8375;-86
2022/07/29 11:29:31;;;;;;;;;;;;;;;;;;6029207;23;8482;-83
2022/07/29 11:32:09;;;;;;;;;;;;;;;;;;5976912;24;8687;-86
2022/07/29 11:34:36;;;;;;;;;;;;;;;;;;6028766;23;7293;-86
2022/07/29 11:37:12;;;;;;;;;;;;;;;;;;6029095;23;7023;-83
2022/07/29 11:39:39;;;;;;;;;;;;;;;;;;6007342;23;7234;-85
2022/07/29 11:42:20;;;;;;;;;;;;;;;;;;6029186;23;8579;-88
2022/07/29 11:44:58;;;;;;;;;;;;;;;;;;6003623;23;6850;-83
2022/07/29 11:47:25;;;;;;;;;;;;;;;;;;6010717;23;7029;-79
2022/07/29 11:49:52;;;;;;;;;;;;;;;;;;6034773;23;8452;-85
2022/07/29 11:52:17;;;;;;;;;;;;;;;;;;6032068;23;8758;-86
2022/07/29 11:54:44;;;;;;;;;;;;;;;;;;6029941;23;8388;-85
2022/07/29 11:57:10;;;;;;;;;;;;;;;;;;6032347;23;6980;-83
2022/07/29 11:59:41;;;;;;;;;;;;;;;;;;6030675;23;7052;-83
2022/07/29 12:02:07;;;;;;;;;;;;;;;;;;6028888;23;7858;-81
2022/07/29 12:04:34;;;;;;;;;;;;;;;;;;6027954;23;7420;-84
2022/07/29 12:07:00;;;;;;;;;;;;;;;;;;6028709;23;8873;-80
2022/07/29 12:09:26;;;;;;;;;;;;;;;;;;6027868;23;7068;-82
2022/07/29 12:11:58;;;;;;;;;;;;;;;;;;6027605;23;7049;-82
2022/07/29 12:14:32;;;;;;;;;;;;;;;;;;6027812;23;8502;-85
2022/07/29 12:16:59;;;;;;;;;;;;;;;;;;6028377;23;7030;-86
2022/07/29 12:19:27;;;;;;;;;;;;;;;;;;6028595;23;8407;-82
2022/07/29 12:21:58;;;;;;;;;;;;;;;;;;6027952;23;7081;-73
2022/07/29 12:24:23;;;;;;;;;;;;;;;;;;6027295;23;8370;-74
2022/07/29 12:26:59;;;;;;;;;;;;;;;;;;6028382;23;7297;-73
2022/07/29 12:29:26;;;;;;;;;;;;;;;;;;6028251;23;7056;-83
2022/07/29 12:31:53;;;;;;;;;;;;;;;;;;6028003;23;8751;-81
2022/07/29 12:34:22;;;;;;;;;;;;;;;;;;6028288;23;7217;-80
2022/07/29 12:36:50;;;;;;;;;;;;;;;;;;6028980;23;8503;-84
2022/07/29 12:39:17;;;;;;;;;;;;;;;;;;6027734;23;7322;-83
2022/07/29 12:41:43;;;;;;;;;;;;;;;;;;6028075;23;8431;-84
2022/07/29 12:44:09;;;;;;;;;;;;;;;;;;6028725;23;8685;-81
2022/07/29 12:46:35;;;;;;;;;;;;;;;;;;6028175;23;8405;-81
2022/07/29 12:49:01;;;;;;;;;;;;;;;;;;6027541;23;8509;-85
2022/07/29 12:51:34;;;;;;;;;;;;;;;;;;6026641;23;6971;-84
2022/07/29 12:54:03;;;;;;;;;;;;;;;;;;6027650;23;7151;-85
2022/07/29 12:56:28;;;;;;;;;;;;;;;;;;6004630;23;8420;-83
2022/07/29 12:58:54;;;;;;;;;;;;;;;;;;6028024;23;7122;-83
2022/07/29 13:01:20;;;;;;;;;;;;;;;;;;6026988;23;8408;-83
2022/07/29 13:03:51;;;;;;;;;;;;;;;;;;6028215;23;8234;-83
2022/07/29 13:06:46;;;;;;;;;;;;;;;;;;6027831;23;8612;-83
2022/07/29 13:09:13;;;;;;;;;;;;;;;;;;5962534;24;7039;-84
2022/07/29 13:11:46;;;;;;;;;;;;;;;;;;6002628;23;7186;-85
2022/07/29 13:14:13;;;;;;;;;;;;;;;;;;6027868;23;8386;-86
2022/07/29 13:16:58;;;;;;;;;;;;;;;;;;6028087;23;8510;-85
2022/07/29 13:19:32;;;;;;;;;;;;;;;;;;5980340;24;8373;-85
2022/07/29 13:21:58;;;;;;;;;;;;;;;;;;6028172;23;8402;-84
2022/07/29 13:24:23;;;;;;;;;;;;;;;;;;6028025;23;8397;-84
2022/07/29 13:26:49;;;;;;;;;;;;;;;;;;6027956;23;8422;-85
2022/07/29 13:29:16;;;;;;;;;;;;;;;;;;6027896;23;7834;-84
2022/07/29 13:31:41;;;;;;;;;;;;;;;;;;6027033;23;7051;-86
2022/07/29 13:34:07;;;;;;;;;;;;;;;;;;6027983;23;8665;-82
2022/07/29 13:36:32;;;;;;;;;;;;;;;;;;6027846;23;7309;-86
2022/07/29 13:38:58;;;;;;;;;;;;;;;;;;6027672;23;8682;-85
2022/07/29 13:41:23;;;;;;;;;;;;;;;;;;6028328;23;8486;-86
2022/07/29 13:43:49;;;;;;;;;;;;;;;;;;6030580;23;8424;-86
2022/07/29 13:46:14;;;;;;;;;;;;;;;;;;6028403;23;8647;-86
2022/07/29 13:48:40;;;;;;;;;;;;;;;;;;6029239;23;8531;-85
2022/07/29 13:51:06;;;;;;;;;;;;;;;;;;6028300;23;7297;-85
2022/07/29 13:53:32;;;;;;;;;;;;;;;;;;6029520;23;8946;-84
2022/07/29 13:55:58;;;;;;;;;;;;;;;;;;6030140;23;8432;-83
2022/07/29 13:58:24;;;;;;;;;;;;;;;;;;6030867;23;7220;-85
2022/07/29 14:00:50;;;;;;;;;;;;;;;;;;6032120;23;6995;-85
2022/07/29 14:03:15;;;;;;;;;;;;;;;;;;6032731;23;8771;-85
2022/07/29 14:05:41;;;;;;;;;;;;;;;;;;6031038;23;8435;-84
2022/07/29 14:08:06;;;;;;;;;;;;;;;;;;6032222;23;6995;-85
2022/07/29 14:10:32;;;;;;;;;;;;;;;;;;6031824;23;8439;-85
2022/07/29 14:12:58;;;;;;;;;;;;;;;;;;6032468;23;7010;-86
2022/07/29 14:15:24;;;;;;;;;;;;;;;;;;6031821;23;8475;-86
2022/07/29 14:17:50;;;;;;;;;;;;;;;;;;6032762;23;8437;-83
2022/07/29 14:20:15;;;;;;;;;;;;;;;;;;6032199;23;7000;-85
2022/07/29 14:22:42;;;;;;;;;;;;;;;;;;6032130;23;8549;-85
2022/07/29 14:25:08;;;;;;;;;;;;;;;;;;6031325;23;7043;-85
2022/07/29 14:27:34;;;;;;;;;;;;;;;;;;6032656;23;8582;-85
2022/07/29 14:30:00;;;;;;;;;;;;;;;;;;6032473;23;8497;-83
2022/07/29 14:32:25;;;;;;;;;;;;;;;;;;6033260;23;7045;-85
2022/07/29 14:34:51;;;;;;;;;;;;;;;;;;6032696;23;8371;-85
2022/07/29 14:37:17;;;;;;;;;;;;;;;;;;6029352;23;8400;-85
2022/07/29 14:39:42;;;;;;;;;;;;;;;;;;6031199;23;8485;-85
2022/07/29 14:42:11;;;;;;;;;;;;;;;;;;6031527;23;8492;-85
2022/07/29 14:44:36;;;;;;;;;;;;;;;;;;6031411;23;7409;-85
2022/07/29 14:47:02;;;;;;;;;;;;;;;;;;6031943;23;8798;-85
2022/07/29 14:49:27;;;;;;;;;;;;;;;;;;6031053;23;7148;-85
2022/07/29 14:51:52;;;;;;;;;;;;;;;;;;6031483;23;7232;-86
2022/07/29 14:54:18;;;;;;;;;;;;;;;;;;6031337;23;7029;-86
2022/07/29 14:56:43;;;;;;;;;;;;;;;;;;6031435;23;7065;-85
2022/07/29 14:59:09;;;;;;;;;;;;;;;;;;6031743;23;8643;-84
2022/07/29 15:01:34;;;;;;;;;;;;;;;;;;6031835;23;8695;-86
2022/07/29 15:04:00;;;;;;;;;;;;;;;;;;6031905;23;8107;-87
2022/07/29 15:06:26;;;;;;;;;;;;;;;;;;6031274;23;6826;-87
2022/07/29 15:08:51;;;;;;;;;;;;;;;;;;6032044;23;8708;-84
2022/07/29 15:11:17;;;;;;;;;;;;;;;;;;6031955;23;8524;-83
2022/07/29 15:13:42;;;;;;;;;;;;;;;;;;6031677;23;8408;-84
2022/07/29 15:16:08;;;;;;;;;;;;;;;;;;6031268;23;8973;-85
2022/07/29 15:18:34;;;;;;;;;;;;;;;;;;6032030;23;7414;-85
2022/07/29 15:21:02;;;;;;;;;;;;;;;;;;6031158;23;8895;-83
2022/07/29 15:23:27;;;;;;;;;;;;;;;;;;6031701;23;8447;-84
2022/07/29 15:25:53;;;;;;;;;;;;;;;;;;6030820;23;8500;-86
2022/07/29 15:28:18;;;;;;;;;;;;;;;;;;6032146;23;7201;-87
2022/07/29 15:30:43;;;;;;;;;;;;;;;;;;6031167;23;6982;-85
2022/07/29 15:33:09;;;;;;;;;;;;;;;;;;6031815;23;8712;-75
2022/07/29 15:35:36;;;;;;;;;;;;;;;;;;6031075;23;9219;-85
2022/07/29 15:38:02;;;;;;;;;;;;;;;;;;6031428;23;8892;-84
2022/07/29 15:40:27;;;;;;;;;;;;;;;;;;6031772;23;8426;-86
2022/07/29 15:42:53;;;;;;;;;;;;;;;;;;6032022;23;7144;-84
2022/07/29 15:45:18;;;;;;;;;;;;;;;;;;6030923;23;8466;-85
2022/07/29 15:47:44;;;;;;;;;;;;;;;;;;6031709;23;8552;-84
2022/07/29 15:50:14;;;;;;;;;;;;;;;;;;6033518;23;8563;-84
2022/07/29 15:52:41;;;;;;;;;;;;;;;;;;6032973;23;7323;-85
2022/07/29 15:55:06;;;;;;;;;;;;;;;;;;6032845;23;7026;-83
2022/07/29 15:57:32;;;;;;;;;;;;;;;;;;6032299;23;8437;-87
2022/07/29 15:59:57;;;;;;;;;;;;;;;;;;6030728;23;7129;-85
2022/07/29 16:02:23;;;;;;;;;;;;;;;;;;6031174;23;8390;-89
2022/07/29 16:04:48;;;;;;;;;;;;;;;;;;6030999;23;8375;-86
2022/07/29 16:07:14;;;;;;;;;;;;;;;;;;6031406;23;8577;-84
2022/07/29 16:09:40;;;;;;;;;;;;;;;;;;6031254;23;8432;-86
2022/07/29 16:12:06;;;;;;;;;;;;;;;;;;6031204;23;8901;-89
2022/07/29 16:14:31;;;;;;;;;;;;;;;;;;6031387;23;8405;-86
2022/07/29 16:16:57;;;;;;;;;;;;;;;;;;6031450;23;7006;-85
2022/07/29 16:19:22;;;;;;;;;;;;;;;;;;6031155;23;8414;-86
2022/07/29 16:21:48;;;;;;;;;;;;;;;;;;6030769;23;8481;-87
2022/07/29 16:24:13;;;;;;;;;;;;;;;;;;6032500;23;8493;-86
2022/07/29 16:26:40;;;;;;;;;;;;;;;;;;6031054;23;8098;-87
2022/07/29 16:29:06;;;;;;;;;;;;;;;;;;6030348;23;8461;-86
2022/07/29 16:31:31;;;;;;;;;;;;;;;;;;6031573;23;8494;-85
2022/07/29 16:33:57;;;;;;;;;;;;;;;;;;6031014;23;7010;-85
2022/07/29 16:36:22;;;;;;;;;;;;;;;;;;6031249;23;7165;-86
2022/07/29 16:38:48;;;;;;;;;;;;;;;;;;6031232;23;8569;-85
2022/07/29 16:41:14;;;;;;;;;;;;;;;;;;6030845;23;7031;-85
2022/07/29 16:43:40;;;;;;;;;;;;;;;;;;6031298;23;7008;-86
2022/07/29 16:46:10;;;;;;;;;;;;;;;;;;6031678;23;8404;-86
2022/07/29 16:48:37;;;;;;;;;;;;;;;;;;6030921;23;8458;-87
2022/07/29 16:51:06;;;;;;;;;;;;;;;;;;5984513;24;7197;-85
2022/07/29 16:53:32;;;;;;;;;;;;;;;;;;6031030;23;7156;-85
2022/07/29 16:55:57;;;;;;;;;;;;;;;;;;6031130;23;8370;-86
2022/07/29 16:58:23;;;;;;;;;;;;;;;;;;6031213;23;8531;-86
2022/07/29 17:00:48;;;;;;;;;;;;;;;;;;6031035;23;8701;-86
2022/07/29 17:03:14;;;;;;;;;;;;;;;;;;6032078;23;8470;-86
2022/07/29 17:05:39;;;;;;;;;;;;;;;;;;6030994;23;7016;-84
2022/07/29 17:08:05;;;;;;;;;;;;;;;;;;6030737;23;8884;-86
2022/07/29 17:10:30;;;;;;;;;;;;;;;;;;6030698;23;8837;-86
2022/07/29 17:12:56;;;;;;;;;;;;;;;;;;6030651;23;7006;-87
2022/07/29 17:15:21;;;;;;;;;;;;;;;;;;6030916;23;9641;-84